createdAt,value
2017-06-01T00:00:41.820Z,8.04
2017-06-01T00:02:03.986Z,7.97
2017-06-01T00:03:25.808Z,8.05
2017-06-01T00:04:48.326Z,7.98
2017-06-01T00:06:10.599Z,8.05
2017-06-01T00:07:32.593Z,8.02
2017-06-01T00:08:54.512Z,7.92
2017-06-01T00:10:16.376Z,7.97
2017-06-01T00:11:38.536Z,7.92
2017-06-01T00:13:00.937Z,7.93
2017-06-01T00:14:23.060Z,7.85
2017-06-01T00:15:44.556Z,7.85
2017-06-01T00:17:06.706Z,7.92
2017-06-01T00:18:29.106Z,7.8
2017-06-01T00:19:51.026Z,7.82
2017-06-01T00:21:12.595Z,7.89
2017-06-01T00:22:34.437Z,7.95
2017-06-01T00:23:56.872Z,7.83
2017-06-01T00:25:18.781Z,7.83
2017-06-01T00:26:40.346Z,7.77
2017-06-01T00:28:02.886Z,7.77
2017-06-01T00:29:25.194Z,7.79
2017-06-01T00:30:47.436Z,7.75
2017-06-01T00:32:09.375Z,7.69
2017-06-01T00:33:31.557Z,7.79
2017-06-01T00:34:53.698Z,7.68
2017-06-01T00:36:15.651Z,7.68
2017-06-01T00:37:37.304Z,7.69
2017-06-01T00:38:59.439Z,7.64
2017-06-01T00:40:22.318Z,7.67
2017-06-01T00:41:44.459Z,7.61
2017-06-01T00:43:06.315Z,7.55
2017-06-01T00:44:28.773Z,7.5
2017-06-01T00:45:51.057Z,7.55
2017-06-01T00:47:12.562Z,7.49
2017-06-01T00:48:35.020Z,7.58
2017-06-01T00:49:56.835Z,7.6
2017-06-01T00:51:19.653Z,7.6
2017-06-01T00:52:42.277Z,7.57
2017-06-01T00:54:04.767Z,7.48
2017-06-01T00:55:26.938Z,7.46
2017-06-01T00:56:49.708Z,7.43
2017-06-01T00:58:12.175Z,7.42
2017-06-01T00:59:34.011Z,7.39
2017-06-01T01:00:55.634Z,7.45
2017-06-01T01:02:17.733Z,7.42
2017-06-01T01:03:39.343Z,7.43
2017-06-01T01:05:01.471Z,7.4
2017-06-01T01:06:22.972Z,7.42
2017-06-01T01:07:45.056Z,7.37
2017-06-01T01:09:06.953Z,7.37
2017-06-01T01:10:28.815Z,7.31
2017-06-01T01:11:50.631Z,7.37
2017-06-01T01:13:12.485Z,7.28
2017-06-01T01:14:34.349Z,7.34
2017-06-01T01:15:56.552Z,7.23
2017-06-01T01:17:18.399Z,7.21
2017-06-01T01:18:40.569Z,7.2
2017-06-01T01:20:02.844Z,7.21
2017-06-01T01:21:24.795Z,7.16
2017-06-01T01:22:46.291Z,7.27
2017-06-01T01:24:08.066Z,7.16
2017-06-01T01:25:30.274Z,7.15
2017-06-01T01:26:52.422Z,7.31
2017-06-01T01:28:14.978Z,7.34
2017-06-01T01:29:37.103Z,7.3
2017-06-01T01:30:58.933Z,7.25
2017-06-01T01:32:21.503Z,7.3
2017-06-01T01:33:43.642Z,7.17
2017-06-01T01:35:06.133Z,7.17
2017-06-01T01:36:27.672Z,7.24
2017-06-01T01:37:49.362Z,7.28
2017-06-01T01:39:11.542Z,7.3
2017-06-01T01:40:33.044Z,7.3
2017-06-01T01:41:55.201Z,7.32
2017-06-01T01:43:16.393Z,7.37
2017-06-01T01:44:37.894Z,7.39
2017-06-01T01:46:00.080Z,7.23
2017-06-01T01:47:22.523Z,7.25
2017-06-01T01:48:44.402Z,7.25
2017-06-01T01:50:06.237Z,7.15
2017-06-01T01:51:28.403Z,7.27
2017-06-01T01:52:50.534Z,7.21
2017-06-01T01:54:12.712Z,7.2
2017-06-01T01:55:34.253Z,7.15
2017-06-01T01:56:56.524Z,7.2
2017-06-01T01:58:18.982Z,7.1
2017-06-01T01:59:41.006Z,7.15
2017-06-01T02:01:02.929Z,7.1
2017-06-01T02:02:25.233Z,7.15
2017-06-01T02:03:47.190Z,7.17
2017-06-01T02:05:09.093Z,7.16
2017-06-01T02:06:31.009Z,7.15
2017-06-01T02:07:53.440Z,7.1
2017-06-01T02:09:15.343Z,7.07
2017-06-01T02:10:36.882Z,7.12
2017-06-01T02:11:59.033Z,7.03
2017-06-01T02:13:21.257Z,7.1
2017-06-01T02:14:42.766Z,7.1
2017-06-01T02:16:05.253Z,7.1
2017-06-01T02:17:26.924Z,7.06
2017-06-01T02:18:49.457Z,7.06
2017-06-01T02:20:11.827Z,6.99
2017-06-01T02:21:33.703Z,7.09
2017-06-01T02:22:56.173Z,7.2
2017-06-01T02:24:18.254Z,7.03
2017-06-01T02:25:40.085Z,7.03
2017-06-01T02:27:01.904Z,7.06
2017-06-01T02:28:23.723Z,7.03
2017-06-01T02:29:45.650Z,6.97
2017-06-01T02:31:07.789Z,7.02
2017-06-01T02:32:30.014Z,7.12
2017-06-01T02:33:52.253Z,6.98
2017-06-01T02:35:14.063Z,6.98
2017-06-01T02:36:35.885Z,6.95
2017-06-01T02:37:58.367Z,7.06
2017-06-01T02:39:20.633Z,6.99
2017-06-01T02:40:42.432Z,6.99
2017-06-01T02:42:03.949Z,7.06
2017-06-01T02:43:26.094Z,7.12
2017-06-01T02:44:48.552Z,6.97
2017-06-01T02:46:10.373Z,6.99
2017-06-01T02:47:32.832Z,7.03
2017-06-01T02:48:55.362Z,7.02
2017-06-01T02:50:17.812Z,7.02
2017-06-01T02:51:40.513Z,7.05
2017-06-01T02:53:02.061Z,7.03
2017-06-01T02:54:23.962Z,6.97
2017-06-01T02:55:46.192Z,7.03
2017-06-01T02:57:09.005Z,6.99
2017-06-01T02:58:31.503Z,6.87
2017-06-01T02:59:53.682Z,6.98
2017-06-01T03:01:16.258Z,6.89
2017-06-01T03:02:38.924Z,6.89
2017-06-01T03:04:01.062Z,6.95
2017-06-01T03:05:22.585Z,6.91
2017-06-01T03:06:44.750Z,6.91
2017-06-01T03:08:06.929Z,6.87
2017-06-01T03:09:29.363Z,6.8
2017-06-01T03:10:50.895Z,6.85
2017-06-01T03:12:13.024Z,6.8
2017-06-01T03:13:35.802Z,6.77
2017-06-01T03:14:57.663Z,6.79
2017-06-01T03:16:19.804Z,6.84
2017-06-01T03:17:41.620Z,6.85
2017-06-01T03:19:04.103Z,6.79
2017-06-01T03:20:25.942Z,6.84
2017-06-01T03:21:47.752Z,6.74
2017-06-01T03:23:09.031Z,6.8
2017-06-01T03:24:31.338Z,6.81
2017-06-01T03:25:53.824Z,6.85
2017-06-01T03:27:15.686Z,6.91
2017-06-01T03:28:37.646Z,6.92
2017-06-01T03:30:00.125Z,7.03
2017-06-01T03:31:22.258Z,7.07
2017-06-01T03:32:44.722Z,7.1
2017-06-01T03:34:06.233Z,7.13
2017-06-01T03:35:28.673Z,7.17
2017-06-01T03:36:50.484Z,7.28
2017-06-01T03:38:12.412Z,7.28
2017-06-01T03:39:34.371Z,7.32
2017-06-01T03:40:56.971Z,7.37
2017-06-01T03:42:18.505Z,7.42
2017-06-01T03:43:40.343Z,7.43
2017-06-01T03:45:02.244Z,7.45
2017-06-01T03:46:25.023Z,7.5
2017-06-01T03:47:47.230Z,7.6
2017-06-01T03:49:09.364Z,7.57
2017-06-01T03:50:31.616Z,7.55
2017-06-01T03:51:54.118Z,7.72
2017-06-01T03:53:15.633Z,7.68
2017-06-01T03:54:37.534Z,7.68
2017-06-01T03:55:59.670Z,7.64
2017-06-01T03:57:22.114Z,7.86
2017-06-01T03:58:43.351Z,7.87
2017-06-01T04:00:05.311Z,8.02
2017-06-01T04:01:27.202Z,7.97
2017-06-01T04:02:49.998Z,8.08
2017-06-01T04:04:12.135Z,8.04
2017-06-01T04:05:33.962Z,8.04
2017-06-01T04:06:55.543Z,8.15
2017-06-01T04:08:18.021Z,8.11
2017-06-01T04:09:40.472Z,8.18
2017-06-01T04:11:02.712Z,8.11
2017-06-01T04:12:24.602Z,8.26
2017-06-01T04:13:47.076Z,8.3
2017-06-01T04:15:09.214Z,8.3
2017-06-01T04:16:31.690Z,8.45
2017-06-01T04:17:53.300Z,8.47
2017-06-01T04:19:15.782Z,8.58
2017-06-01T04:20:37.963Z,8.68
2017-06-01T04:21:59.478Z,8.8
2017-06-01T04:23:21.294Z,8.83
2017-06-01T04:24:43.679Z,8.83
2017-06-01T04:26:05.839Z,8.8
2017-06-01T04:27:27.989Z,8.94
2017-06-01T04:28:49.517Z,8.92
2017-06-01T04:30:11.280Z,9.01
2017-06-01T04:31:32.473Z,8.96
2017-06-01T04:32:54.970Z,9.11
2017-06-01T04:34:16.979Z,9.21
2017-06-01T04:35:38.419Z,9.29
2017-06-01T04:37:00.043Z,9.4
2017-06-01T04:38:22.294Z,9.46
2017-06-01T04:39:44.443Z,9.56
2017-06-01T04:41:06.567Z,9.68
2017-06-01T04:42:29.051Z,9.79
2017-06-01T04:43:50.572Z,9.96
2017-06-01T04:45:12.711Z,10.15
2017-06-01T04:46:35.463Z,10.34
2017-06-01T04:47:57.194Z,10.42
2017-06-01T04:49:19.064Z,10.66
2017-06-01T04:50:40.926Z,10.84
2017-06-01T04:52:03.377Z,11.47
2017-06-01T04:53:25.838Z,12.92
2017-06-01T04:54:47.440Z,14.92
2017-06-01T04:56:09.598Z,16.94
2017-06-01T04:57:32.103Z,18.91
2017-06-01T04:58:53.695Z,20.18
2017-06-01T05:00:15.844Z,21.4
2017-06-01T05:01:38.091Z,22.35
2017-06-01T05:03:00.926Z,23.31
2017-06-01T05:04:23.380Z,24.06
2017-06-01T05:05:45.514Z,24.95
2017-06-01T05:07:07.763Z,25.62
2017-06-01T05:08:30.215Z,26.28
2017-06-01T05:09:52.060Z,26.89
2017-06-01T05:11:14.215Z,27.41
2017-06-01T05:12:36.783Z,28.04
2017-06-01T05:13:58.934Z,28.64
2017-06-01T05:15:21.124Z,28.98
2017-06-01T05:16:42.984Z,29.49
2017-06-01T05:18:05.182Z,29.65
2017-06-01T05:19:27.386Z,29.61
2017-06-01T05:20:49.704Z,29.58
2017-06-01T05:22:11.430Z,29.05
2017-06-01T05:23:32.633Z,28.95
2017-06-01T05:24:55.163Z,28.77
2017-06-01T05:26:17.094Z,28.46
2017-06-01T05:27:39.572Z,28.89
2017-06-01T05:29:01.230Z,29.48
2017-06-01T05:30:23.684Z,30.01
2017-06-01T05:31:46.162Z,30.37
2017-06-01T05:33:07.994Z,30.47
2017-06-01T05:34:30.465Z,30.62
2017-06-01T05:35:52.300Z,30.72
2017-06-01T05:37:14.501Z,30.51
2017-06-01T05:38:36.013Z,30.99
2017-06-01T05:39:58.485Z,31.04
2017-06-01T05:41:20.675Z,30.92
2017-06-01T05:42:42.509Z,31.19
2017-06-01T05:44:04.773Z,31.47
2017-06-01T05:45:26.942Z,31.36
2017-06-01T05:46:48.748Z,31.32
2017-06-01T05:48:11.226Z,30.15
2017-06-01T05:49:33.124Z,29.74
2017-06-01T05:50:54.354Z,29.41
2017-06-01T05:52:16.821Z,29.33
2017-06-01T05:53:39.315Z,30.17
2017-06-01T05:55:01.493Z,30.39
2017-06-01T05:56:23.334Z,31.04
2017-06-01T05:57:45.792Z,31.48
2017-06-01T05:59:07.693Z,32.13
2017-06-01T06:00:29.535Z,32.77
2017-06-01T06:01:51.752Z,33.38
2017-06-01T06:03:13.961Z,33.95
2017-06-01T06:04:36.133Z,34.08
2017-06-01T06:05:58.624Z,34.4
2017-06-01T06:07:20.785Z,34.49
2017-06-01T06:08:43.570Z,33.9
2017-06-01T06:10:06.063Z,32.41
2017-06-01T06:11:28.654Z,32
2017-06-01T06:12:50.596Z,31.99
2017-06-01T06:14:13.060Z,32.52
2017-06-01T06:15:35.567Z,32.75
2017-06-01T06:16:57.751Z,32.47
2017-06-01T06:18:19.973Z,33.12
2017-06-01T06:19:42.163Z,33.19
2017-06-01T06:21:04.333Z,33.41
2017-06-01T06:22:26.281Z,33.93
2017-06-01T06:23:47.832Z,34.4
2017-06-01T06:25:09.622Z,35.03
2017-06-01T06:26:32.254Z,35.31
2017-06-01T06:27:54.114Z,35.26
2017-06-01T06:29:16.282Z,34.92
2017-06-01T06:30:38.549Z,34.34
2017-06-01T06:32:00.713Z,34.59
2017-06-01T06:33:22.572Z,34.22
2017-06-01T06:34:44.795Z,33.84
2017-06-01T06:36:06.963Z,33.21
2017-06-01T06:37:29.341Z,32.7
2017-06-01T06:38:51.181Z,32.57
2017-06-01T06:40:13.357Z,33.39
2017-06-01T06:41:36.171Z,33.73
2017-06-01T06:42:58.004Z,33.14
2017-06-01T06:44:19.865Z,33.09
2017-06-01T06:45:42.086Z,33.12
2017-06-01T06:47:04.865Z,32.66
2017-06-01T06:48:27.057Z,31.99
2017-06-01T06:49:48.903Z,32.37
2017-06-01T06:51:11.080Z,32.5
2017-06-01T06:52:33.235Z,32.74
2017-06-01T06:53:55.480Z,33.34
2017-06-01T06:55:17.373Z,33.9
2017-06-01T06:56:39.541Z,34.66
2017-06-01T06:58:01.704Z,35.18
2017-06-01T06:59:23.684Z,35.66
2017-06-01T07:00:46.163Z,36.09
2017-06-01T07:02:08.033Z,34.89
2017-06-01T07:03:30.875Z,34.4
2017-06-01T07:04:53.367Z,33.94
2017-06-01T07:06:14.912Z,34.35
2017-06-01T07:07:36.755Z,33.94
2017-06-01T07:08:58.651Z,34.06
2017-06-01T07:10:20.927Z,33.35
2017-06-01T07:11:42.861Z,33.93
2017-06-01T07:13:05.033Z,34.13
2017-06-01T07:14:27.766Z,34.78
2017-06-01T07:15:49.411Z,34.03
2017-06-01T07:17:11.270Z,33.32
2017-06-01T07:18:33.531Z,32.5
2017-06-01T07:19:55.932Z,33.01
2017-06-01T07:21:18.553Z,33.91
2017-06-01T07:22:40.722Z,33.66
2017-06-01T07:24:02.572Z,32.85
2017-06-01T07:25:24.691Z,32.63
2017-06-01T07:26:45.922Z,32.32
2017-06-01T07:28:08.082Z,32.32
2017-06-01T07:29:29.935Z,33.06
2017-06-01T07:30:52.414Z,33.5
2017-06-01T07:32:14.415Z,34.31
2017-06-01T07:33:36.627Z,33.73
2017-06-01T07:34:58.502Z,33.03
2017-06-01T07:36:20.401Z,33.07
2017-06-01T07:37:42.562Z,32.78
2017-06-01T07:39:05.037Z,33.04
2017-06-01T07:40:27.223Z,33.47
2017-06-01T07:41:49.725Z,34.25
2017-06-01T07:43:11.561Z,34.92
2017-06-01T07:44:33.418Z,35.18
2017-06-01T07:45:54.962Z,35.62
2017-06-01T07:47:16.729Z,35.68
2017-06-01T07:48:38.596Z,34.5
2017-06-01T07:50:00.142Z,33.82
2017-06-01T07:51:22.373Z,33.9
2017-06-01T07:52:44.512Z,33.95
2017-06-01T07:54:07.026Z,33.23
2017-06-01T07:55:28.873Z,32.52
2017-06-01T07:56:51.347Z,31.48
2017-06-01T07:58:13.822Z,32.03
2017-06-01T07:59:36.323Z,32.79
2017-06-01T08:00:58.515Z,32.99
2017-06-01T08:02:20.729Z,32.62
2017-06-01T08:03:42.701Z,32.57
2017-06-01T08:05:04.600Z,31.58
2017-06-01T08:06:27.097Z,30.26
2017-06-01T08:07:49.402Z,29.73
2017-06-01T08:09:11.790Z,29.04
2017-06-01T08:10:33.321Z,28.71
2017-06-01T08:11:55.153Z,28.03
2017-06-01T08:13:16.995Z,26.7
2017-06-01T08:14:39.414Z,25.45
2017-06-01T08:16:01.585Z,24.06
2017-06-01T08:17:23.772Z,22.98
2017-06-01T08:18:45.632Z,22.36
2017-06-01T08:20:08.212Z,22.02
2017-06-01T08:21:30.371Z,21.65
2017-06-01T08:22:51.903Z,21.16
2017-06-01T08:24:14.109Z,20.38
2017-06-01T08:25:36.568Z,19.62
2017-06-01T08:26:58.162Z,19.36
2017-06-01T08:28:20.364Z,19.26
2017-06-01T08:29:42.841Z,19.25
2017-06-01T08:31:05.683Z,19.18
2017-06-01T08:32:28.258Z,19
2017-06-01T08:33:50.081Z,19.07
2017-06-01T08:35:11.339Z,18.91
2017-06-01T08:36:33.792Z,18.66
2017-06-01T08:37:55.953Z,18.67
2017-06-01T08:39:18.430Z,18.7
2017-06-01T08:40:39.952Z,18.76
2017-06-01T08:42:02.408Z,18.76
2017-06-01T08:43:25.023Z,18.9
2017-06-01T08:44:46.863Z,18.72
2017-06-01T08:46:09.008Z,18.51
2017-06-01T08:47:30.599Z,18.6
2017-06-01T08:48:52.854Z,18.62
2017-06-01T08:50:14.682Z,18.7
2017-06-01T08:51:36.527Z,18.55
2017-06-01T08:52:59.022Z,18.17
2017-06-01T08:54:21.219Z,18.15
2017-06-01T08:55:42.731Z,18.35
2017-06-01T08:57:05.223Z,18.32
2017-06-01T08:58:27.983Z,18.21
2017-06-01T08:59:50.213Z,18.23
2017-06-01T09:01:12.707Z,18.33
2017-06-01T09:02:34.223Z,18.48
2017-06-01T09:03:56.665Z,18.54
2017-06-01T09:05:18.224Z,18.3
2017-06-01T09:06:40.373Z,18.51
2017-06-01T09:08:02.842Z,18.65
2017-06-01T09:09:25.132Z,18.75
2017-06-01T09:10:47.023Z,18.8
2017-06-01T09:12:08.911Z,18.78
2017-06-01T09:13:31.091Z,18.76
2017-06-01T09:14:53.345Z,18.85
2017-06-01T09:16:15.897Z,18.82
2017-06-01T09:17:37.424Z,18.7
2017-06-01T09:19:00.016Z,18.72
2017-06-01T09:20:22.471Z,18.88
2017-06-01T09:21:44.700Z,18.73
2017-06-01T09:23:07.167Z,18.87
2017-06-01T09:24:29.657Z,18.87
2017-06-01T09:25:51.765Z,18.57
2017-06-01T09:27:14.019Z,18.57
2017-06-01T09:28:35.244Z,18.73
2017-06-01T09:29:56.772Z,18.85
2017-06-01T09:31:19.277Z,18.98
2017-06-01T09:32:41.503Z,19.04
2017-06-01T09:34:03.969Z,18.84
2017-06-01T09:35:26.204Z,19.08
2017-06-01T09:36:49.033Z,19.11
2017-06-01T09:38:11.221Z,19.04
2017-06-01T09:39:32.728Z,19.06
2017-06-01T09:40:54.261Z,19.1
2017-06-01T09:42:16.752Z,19.19
2017-06-01T09:43:39.149Z,19.21
2017-06-01T09:45:01.302Z,19.36
2017-06-01T09:46:22.811Z,19.14
2017-06-01T09:47:45.006Z,19.19
2017-06-01T09:49:07.202Z,19.32
2017-06-01T09:50:28.733Z,19.39
2017-06-01T09:51:51.364Z,19.48
2017-06-01T09:53:13.813Z,19.43
2017-06-01T09:54:35.997Z,19.48
2017-06-01T09:55:57.823Z,19.61
2017-06-01T09:57:19.699Z,19.59
2017-06-01T09:58:42.309Z,19.55
2017-06-01T10:00:04.142Z,19.44
2017-06-01T10:01:26.001Z,19.21
2017-06-01T10:02:47.679Z,19.04
2017-06-01T10:04:10.432Z,19.26
2017-06-01T10:05:32.282Z,19.44
2017-06-01T10:06:53.173Z,19.46
2017-06-01T10:08:15.022Z,19.54
2017-06-01T10:09:37.242Z,19.58
2017-06-01T10:10:59.090Z,19.59
2017-06-01T10:12:20.943Z,19.68
2017-06-01T10:13:42.833Z,19.58
2017-06-01T10:15:05.295Z,19.61
2017-06-01T10:16:27.928Z,19.61
2017-06-01T10:17:49.503Z,19.61
2017-06-01T10:19:11.633Z,19.73
2017-06-01T10:20:34.082Z,19.84
2017-06-01T10:21:55.932Z,19.96
2017-06-01T10:23:17.763Z,19.43
2017-06-01T10:24:40.290Z,19.41
2017-06-01T10:26:02.750Z,19.33
2017-06-01T10:27:25.224Z,19.31
2017-06-01T10:28:46.743Z,19.16
2017-06-01T10:30:08.272Z,18.98
2017-06-01T10:31:30.696Z,19.13
2017-06-01T10:32:52.542Z,19.1
2017-06-01T10:34:15.012Z,18.99
2017-06-01T10:35:37.180Z,19.16
2017-06-01T10:36:59.641Z,19.43
2017-06-01T10:38:22.363Z,19.78
2017-06-01T10:39:44.849Z,19.92
2017-06-01T10:41:07.337Z,19.87
2017-06-01T10:42:29.883Z,19.69
2017-06-01T10:43:51.786Z,19.77
2017-06-01T10:45:13.924Z,19.76
2017-06-01T10:46:36.185Z,19.77
2017-06-01T10:47:58.655Z,19.81
2017-06-01T10:49:21.131Z,19.74
2017-06-01T10:50:43.589Z,19.83
2017-06-01T10:52:05.733Z,19.96
2017-06-01T10:53:27.869Z,19.8
2017-06-01T10:54:50.009Z,19.68
2017-06-01T10:56:11.824Z,19.77
2017-06-01T10:57:33.979Z,20.02
2017-06-01T10:58:56.174Z,20.06
2017-06-01T11:00:18.446Z,20.29
2017-06-01T11:01:40.603Z,20.1
2017-06-01T11:03:02.538Z,19.88
2017-06-01T11:04:24.732Z,19.96
2017-06-01T11:05:46.585Z,20.21
2017-06-01T11:07:08.103Z,20.33
2017-06-01T11:08:30.369Z,19.95
2017-06-01T11:09:51.882Z,19.81
2017-06-01T11:11:13.715Z,19.99
2017-06-01T11:12:35.569Z,20.18
2017-06-01T11:13:57.097Z,20.31
2017-06-01T11:15:19.499Z,20.38
2017-06-01T11:16:41.014Z,20.55
2017-06-01T11:18:02.849Z,20.58
2017-06-01T11:19:25.023Z,20.66
2017-06-01T11:20:46.858Z,20.48
2017-06-01T11:22:09.322Z,20.32
2017-06-01T11:23:31.522Z,20.11
2017-06-01T11:24:53.750Z,19.98
2017-06-01T11:26:16.267Z,20.21
2017-06-01T11:27:38.762Z,20.52
2017-06-01T11:29:00.925Z,20.57
2017-06-01T11:30:22.552Z,20.61
2017-06-01T11:31:44.964Z,20.58
2017-06-01T11:33:06.803Z,20.73
2017-06-01T11:34:29.112Z,20.97
2017-06-01T11:35:51.587Z,21.01
2017-06-01T11:37:13.494Z,20.95
2017-06-01T11:38:36.034Z,20.62
2017-06-01T11:39:58.203Z,20.32
2017-06-01T11:41:19.732Z,20.26
2017-06-01T11:42:41.852Z,20.32
2017-06-01T11:44:04.022Z,20.55
2017-06-01T11:45:26.180Z,20.42
2017-06-01T11:46:48.363Z,20.38
2017-06-01T11:48:10.499Z,20.79
2017-06-01T11:49:33.081Z,20.97
2017-06-01T11:50:54.924Z,20.91
2017-06-01T11:52:16.881Z,21.03
2017-06-01T11:53:39.022Z,21.22
2017-06-01T11:55:01.171Z,21.27
2017-06-01T11:56:23.072Z,21.5
2017-06-01T11:57:45.293Z,21.69
2017-06-01T11:59:08.290Z,21.92
2017-06-01T12:00:29.970Z,21.69
2017-06-01T12:01:52.120Z,21.13
2017-06-01T12:03:13.643Z,20.99
2017-06-01T12:04:35.461Z,20.98
2017-06-01T12:05:57.301Z,20.73
2017-06-01T12:07:19.444Z,20.58
2017-06-01T12:08:41.706Z,20.73
2017-06-01T12:10:03.880Z,20.76
2017-06-01T12:11:26.049Z,20.99
2017-06-01T12:12:48.225Z,21.24
2017-06-01T12:14:10.180Z,21.03
2017-06-01T12:15:32.903Z,20.87
2017-06-01T12:16:55.456Z,20.61
2017-06-01T12:18:17.614Z,20.74
2017-06-01T12:19:40.087Z,20.69
2017-06-01T12:21:02.641Z,20.77
2017-06-01T12:22:24.492Z,20.95
2017-06-01T12:23:46.659Z,21.01
2017-06-01T12:25:08.856Z,21.14
2017-06-01T12:26:31.352Z,20.98
2017-06-01T12:27:53.516Z,21.03
2017-06-01T12:29:15.353Z,21.24
2017-06-01T12:30:37.552Z,21.09
2017-06-01T12:31:59.742Z,21.13
2017-06-01T12:33:21.604Z,20.95
2017-06-01T12:34:43.831Z,20.99
2017-06-01T12:36:05.362Z,20.89
2017-06-01T12:37:27.575Z,20.97
2017-06-01T12:38:50.066Z,21.13
2017-06-01T12:40:12.482Z,21.46
2017-06-01T12:41:34.649Z,21.58
2017-06-01T12:42:57.454Z,21.61
2017-06-01T12:44:19.313Z,21.79
2017-06-01T12:45:41.795Z,21.9
2017-06-01T12:47:03.360Z,22.02
2017-06-01T12:48:25.832Z,21.98
2017-06-01T12:49:47.742Z,21.99
2017-06-01T12:51:09.932Z,22.05
2017-06-01T12:52:32.493Z,22
2017-06-01T12:53:54.945Z,21.94
2017-06-01T12:55:17.101Z,21.74
2017-06-01T12:56:39.559Z,21.8
2017-06-01T12:58:02.051Z,21.77
2017-06-01T12:59:24.952Z,21.77
2017-06-01T13:00:46.520Z,21.83
2017-06-01T13:02:08.692Z,21.82
2017-06-01T13:03:30.863Z,21.82
2017-06-01T13:04:53.291Z,21.98
2017-06-01T13:06:15.884Z,21.98
2017-06-01T13:07:37.525Z,22.07
2017-06-01T13:08:59.703Z,22.1
2017-06-01T13:10:21.048Z,22.14
2017-06-01T13:11:42.894Z,22.22
2017-06-01T13:13:04.411Z,21.99
2017-06-01T13:14:26.883Z,22
2017-06-01T13:15:49.695Z,22.15
2017-06-01T13:17:11.856Z,22.07
2017-06-01T13:18:34.021Z,21.62
2017-06-01T13:19:55.611Z,21.16
2017-06-01T13:21:18.202Z,21.27
2017-06-01T13:22:40.362Z,21.53
2017-06-01T13:24:01.893Z,21.74
2017-06-01T13:25:24.393Z,21.84
2017-06-01T13:26:47.365Z,21.69
2017-06-01T13:28:09.856Z,21.4
2017-06-01T13:29:32.042Z,21.32
2017-06-01T13:30:54.268Z,21.32
2017-06-01T13:32:16.499Z,21.58
2017-06-01T13:33:38.354Z,21.8
2017-06-01T13:34:59.565Z,21.86
2017-06-01T13:36:21.739Z,22.05
2017-06-01T13:37:44.582Z,22.21
2017-06-01T13:39:07.088Z,22.27
2017-06-01T13:40:29.013Z,22.14
2017-06-01T13:41:51.609Z,21.88
2017-06-01T13:43:14.098Z,21.71
2017-06-01T13:44:36.271Z,21.4
2017-06-01T13:45:58.763Z,21.22
2017-06-01T13:47:20.622Z,21.37
2017-06-01T13:48:42.441Z,21.5
2017-06-01T13:50:05.064Z,21.5
2017-06-01T13:51:26.923Z,21.52
2017-06-01T13:52:49.448Z,21.58
2017-06-01T13:54:11.801Z,21.77
2017-06-01T13:55:34.082Z,21.94
2017-06-01T13:56:55.944Z,21.84
2017-06-01T13:58:18.164Z,21.8
2017-06-01T13:59:40.973Z,21.88
2017-06-01T14:01:03.512Z,21.96
2017-06-01T14:02:26.002Z,22.02
2017-06-01T14:03:48.192Z,22.14
2017-06-01T14:05:10.296Z,22.17
2017-06-01T14:06:32.563Z,22.31
2017-06-01T14:07:54.424Z,22.46
2017-06-01T14:09:16.587Z,22.43
2017-06-01T14:10:39.039Z,22.39
2017-06-01T14:12:01.225Z,22.31
2017-06-01T14:13:23.122Z,21.98
2017-06-01T14:14:45.291Z,22.05
2017-06-01T14:16:07.748Z,22.06
2017-06-01T14:17:30.072Z,21.9
2017-06-01T14:18:52.013Z,22.02
2017-06-01T14:20:13.895Z,22.05
2017-06-01T14:21:36.231Z,21.82
2017-06-01T14:22:58.142Z,21.74
2017-06-01T14:24:19.732Z,21.68
2017-06-01T14:25:42.244Z,21.58
2017-06-01T14:27:04.664Z,21.77
2017-06-01T14:28:26.544Z,21.82
2017-06-01T14:29:48.723Z,21.98
2017-06-01T14:31:10.900Z,22.07
2017-06-01T14:32:33.359Z,22.22
2017-06-01T14:33:55.873Z,22.07
2017-06-01T14:35:17.752Z,22.17
2017-06-01T14:36:39.610Z,22.2
2017-06-01T14:38:01.772Z,22.21
2017-06-01T14:39:24.023Z,22.17
2017-06-01T14:40:46.494Z,22.31
2017-06-01T14:42:08.780Z,22.24
2017-06-01T14:43:30.966Z,22.17
2017-06-01T14:44:53.452Z,22.35
2017-06-01T14:46:15.621Z,22.46
2017-06-01T14:47:38.194Z,22.62
2017-06-01T14:49:01.018Z,22.61
2017-06-01T14:50:23.167Z,22.7
2017-06-01T14:51:45.375Z,22.51
2017-06-01T14:53:07.442Z,22.27
2017-06-01T14:54:30.042Z,22.15
2017-06-01T14:55:51.906Z,22.21
2017-06-01T14:57:14.513Z,21.96
2017-06-01T14:58:36.677Z,21.94
2017-06-01T14:59:59.530Z,22.05
2017-06-01T15:01:22.017Z,21.96
2017-06-01T15:02:43.319Z,22.09
2017-06-01T15:04:05.863Z,22.27
2017-06-01T15:05:28.350Z,22.36
2017-06-01T15:06:50.522Z,22.51
2017-06-01T15:08:12.999Z,22.25
2017-06-01T15:09:34.872Z,21.96
2017-06-01T15:10:57.315Z,21.88
2017-06-01T15:12:19.642Z,21.74
2017-06-01T15:13:41.826Z,21.71
2017-06-01T15:15:04.115Z,21.79
2017-06-01T15:16:26.941Z,22
2017-06-01T15:17:49.110Z,22.18
2017-06-01T15:19:10.959Z,21.98
2017-06-01T15:20:32.822Z,22.02
2017-06-01T15:21:55.741Z,22.21
2017-06-01T15:23:17.915Z,22.15
2017-06-01T15:24:40.317Z,22.21
2017-06-01T15:26:02.489Z,22.35
2017-06-01T15:27:25.162Z,22.51
2017-06-01T15:28:47.732Z,22.6
2017-06-01T15:30:10.219Z,22.58
2017-06-01T15:31:32.731Z,22.62
2017-06-01T15:32:54.842Z,22.68
2017-06-01T15:34:17.494Z,22.67
2017-06-01T15:35:39.455Z,22.61
2017-06-01T15:37:01.654Z,22.61
2017-06-01T15:38:24.483Z,22.22
2017-06-01T15:39:46.971Z,22.15
2017-06-01T15:41:09.496Z,22.1
2017-06-01T15:42:31.134Z,21.99
2017-06-01T15:43:53.624Z,21.88
2017-06-01T15:45:16.167Z,21.75
2017-06-01T15:46:38.714Z,21.62
2017-06-01T15:48:00.569Z,21.68
2017-06-01T15:49:23.101Z,21.59
2017-06-01T15:50:45.055Z,21.5
2017-06-01T15:52:07.534Z,21.62
2017-06-01T15:53:29.752Z,21.68
2017-06-01T15:54:52.171Z,21.71
2017-06-01T15:56:14.922Z,21.77
2017-06-01T15:57:37.093Z,21.59
2017-06-01T15:58:59.585Z,21.49
2017-06-01T16:00:22.097Z,21.32
2017-06-01T16:01:44.277Z,21.52
2017-06-01T16:03:06.153Z,21.65
2017-06-01T16:04:28.024Z,21.62
2017-06-01T16:05:50.984Z,21.72
2017-06-01T16:07:13.264Z,21.69
2017-06-01T16:08:35.321Z,21.75
2017-06-01T16:09:57.006Z,21.83
2017-06-01T16:11:19.292Z,21.82
2017-06-01T16:12:41.126Z,21.4
2017-06-01T16:14:03.045Z,21.42
2017-06-01T16:15:25.527Z,21.32
2017-06-01T16:16:48.306Z,21.34
2017-06-01T16:18:10.495Z,21.46
2017-06-01T16:19:32.724Z,21.46
2017-06-01T16:20:54.671Z,21.29
2017-06-01T16:22:17.462Z,21.22
2017-06-01T16:23:39.325Z,21.17
2017-06-01T16:25:01.562Z,21.19
2017-06-01T16:26:23.795Z,21.03
2017-06-01T16:27:46.585Z,21.14
2017-06-01T16:29:09.139Z,21.14
2017-06-01T16:30:31.655Z,21.01
2017-06-01T16:31:53.920Z,21.16
2017-06-01T16:33:16.077Z,21.19
2017-06-01T16:34:38.243Z,21.14
2017-06-01T16:36:00.105Z,21.17
2017-06-01T16:37:22.151Z,21.21
2017-06-01T16:38:44.699Z,20.98
2017-06-01T16:40:06.704Z,20.94
2017-06-01T16:41:28.969Z,20.88
2017-06-01T16:42:51.308Z,20.88
2017-06-01T16:44:14.147Z,20.76
2017-06-01T16:45:36.363Z,20.84
2017-06-01T16:46:58.643Z,20.92
2017-06-01T16:48:20.818Z,20.88
2017-06-01T16:49:43.663Z,20.95
2017-06-01T16:51:05.869Z,20.89
2017-06-01T16:52:27.743Z,20.92
2017-06-01T16:53:50.024Z,20.99
2017-06-01T16:55:11.911Z,20.99
2017-06-01T16:56:34.412Z,21.07
2017-06-01T16:57:56.927Z,21.12
2017-06-01T16:59:19.170Z,21.01
2017-06-01T17:00:41.644Z,20.85
2017-06-01T17:02:03.981Z,20.91
2017-06-01T17:03:26.473Z,20.77
2017-06-01T17:04:48.984Z,20.87
2017-06-01T17:06:11.161Z,20.89
2017-06-01T17:07:33.349Z,20.91
2017-06-01T17:08:55.197Z,20.77
2017-06-01T17:10:17.402Z,20.76
2017-06-01T17:11:40.165Z,20.76
2017-06-01T17:13:02.328Z,20.76
2017-06-01T17:14:24.957Z,20.77
2017-06-01T17:15:47.463Z,20.77
2017-06-01T17:17:10.035Z,20.73
2017-06-01T17:18:31.938Z,20.62
2017-06-01T17:19:54.122Z,20.61
2017-06-01T17:21:16.644Z,20.73
2017-06-01T17:22:39.452Z,20.67
2017-06-01T17:24:01.309Z,20.62
2017-06-01T17:25:23.491Z,20.67
2017-06-01T17:26:45.448Z,20.72
2017-06-01T17:28:07.781Z,20.59
2017-06-01T17:29:30.055Z,20.67
2017-06-01T17:30:52.458Z,20.57
2017-06-01T17:32:14.651Z,20.61
2017-06-01T17:33:37.429Z,20.58
2017-06-01T17:34:59.689Z,20.55
2017-06-01T17:36:22.186Z,20.54
2017-06-01T17:37:44.690Z,20.52
2017-06-01T17:39:06.915Z,20.54
2017-06-01T17:40:29.234Z,20.51
2017-06-01T17:41:51.122Z,20.35
2017-06-01T17:43:13.642Z,20.41
2017-06-01T17:44:36.444Z,20.39
2017-06-01T17:45:58.941Z,20.38
2017-06-01T17:47:21.828Z,20.31
2017-06-01T17:48:44.018Z,20.31
2017-06-01T17:50:06.835Z,20.31
2017-06-01T17:51:28.703Z,20.28